Flight Track Log - Related Links

Times and Time Zones

All times are in EDT time to prevent confusion due to time zone crossing. See the RPA3341 flight status page for this flight to view local times or setup timezone preferences in your user account.

Time Position Orientation Groundspeed Altitude Reporting Facility
EDT Latitude Longitude Course Direction KTS MPH feet Rate Location/Type
Sat 06:43:17 AM 44.8833 -63.5000 264° West 70 81 400  Level Moncton Center
Sat 06:44:17 AM 44.8500 -63.4500 133° Southeast 140 161 2,300 1,800 Climbing Moncton Center
Sat 06:45:17 AM 44.8167 -63.5000 227° Southwest 240 276 4,000 3,000 Climbing Moncton Center
Sat 06:46:17 AM 44.8000 -63.6167 259° West 270 311 8,300 3,500 Climbing Moncton Center
Sat 06:47:00 AM 44.8091 -64.0126 257° West  Level FlightAware Approximate
Sat 06:47:17 AM 44.7833 -63.7167 257° West 280 322 11,000  Level Moncton Center
Sat 06:48:00 AM 44.7947 -64.1416 264° West  Level FlightAware Approximate
Sat 06:48:17 AM 44.7667 -63.8333 259° West 290 334 14,100  Level Moncton Center
Sat 06:49:17 AM 44.7500 -63.9500 259° West 290 334 16,800 2,650 Climbing Moncton Center
Sat 06:50:17 AM 44.7333 -64.0500 257° West 290 334 19,400 2,450 Climbing Moncton Center
Sat 06:51:17 AM 44.7167 -64.1667 259° West 290 334 21,700 1,900 Climbing Moncton Center
Sat 06:52:17 AM 44.7167 -64.2833 270° West 300 345 23,200 1,600 Climbing Moncton Center
Sat 06:53:17 AM 44.7000 -64.4167 260° West 310 357 24,900 1,650 Climbing Moncton Center
Sat 06:54:17 AM 44.6833 -64.5333 259° West 320 368 26,500 1,600 Climbing Moncton Center
Sat 06:55:17 AM 44.6667 -64.6500 259° West 320 368 28,100 1,350 Climbing Moncton Center
Sat 06:56:17 AM 44.6667 -64.7667 270° West 320 368 29,200 1,200 Climbing Moncton Center
Sat 06:57:17 AM 44.6500 -64.9167 261° West 330 380 30,500 1,150 Climbing Moncton Center
Sat 06:58:17 AM 44.6333 -65.0333 259° West 330 380 31,500 1,100 Climbing Moncton Center
Sat 06:59:17 AM 44.6167 -65.1667 260° West 330 380 32,700 1,250 Climbing Moncton Center
Sat 07:00:17 AM 44.6000 -65.2833 259° West 320 368 34,000 650 Climbing Moncton Center
Sat 07:01:17 AM 44.6000 -65.4000 270° West 310 357 34,000  Level Moncton Center
Sat 07:02:17 AM 44.5833 -65.5500 261° West 320 368 34,000  Level Moncton Center
Sat 07:03:17 AM 44.5667 -65.6667 259° West 320 368 34,000  Level Moncton Center
Sat 07:04:17 AM 44.5500 -65.7833 259° West 320 368 34,000  Level Moncton Center
Sat 07:05:17 AM 44.5500 -65.9000 270° West 320 368 34,000  Level Moncton Center
Sat 07:06:17 AM 44.5333 -66.0333 260° West 320 368 34,000  Level Moncton Center
Sat 07:07:17 AM 44.5000 -66.1500 248° West 330 380 34,000  Level Moncton Center
Sat 07:08:17 AM 44.4833 -66.2667 259° West 330 380 34,000  Level Moncton Center
Sat 07:09:17 AM 44.4667 -66.4167 261° West 320 368 34,000  Level Moncton Center
Sat 07:10:17 AM 44.4667 -66.5333 270° West 320 368 34,000  Level Moncton Center
Sat 07:11:17 AM 44.4500 -66.6667 260° West 320 368 34,000  Level Moncton Center
Sat 07:12:17 AM 44.4333 -66.7833 259° West 330 380 34,000  Level Moncton Center
Sat 07:13:17 AM 44.4167 -66.9000 259° West 330 380 34,000  Level Moncton Center
Sat 07:14:17 AM 44.3833 -67.0333 251° West 330 380 34,000  Level Moncton Center
Sat 07:15:17 AM 44.3500 -67.1500 248° West 330 380 34,000  Level Moncton Center
Sat 07:16:17 AM 44.3333 -67.3000 261° West 340 391 34,000  Level Moncton Center
Sat 07:17:17 AM 44.3000 -67.4167 248° West 350 403 34,000  Level Moncton Center
Sat 07:17:47 AM 44.2956 -67.4644 263° West 352 405 34,000  Level Boston Center
Sat 07:18:47 AM 44.2636 -67.5950 251° West 352 405 34,000 -50 Level Boston Center
Sat 07:19:47 AM 44.2311 -67.7222 250° West 352 405 33,900  Descending Boston Center
Sat 07:20:46 AM 44.1967 -67.8494 249° West 357 411 34,000 50 Climbing Boston Center
Sat 07:21:46 AM 44.1661 -67.9736 251° West 357 411 34,000  Level Boston Center
Sat 07:22:47 AM 44.1314 -68.1006 249° West 357 411 34,000  Level Boston Center
Sat 07:23:47 AM 44.0967 -68.2275 249° West 357 411 34,000  Level Boston Center
Sat 07:24:46 AM 44.0617 -68.3572 249° West 357 411 34,000  Level Boston Center
Sat 07:25:47 AM 44.0286 -68.4836 250° West 357 411 34,000  Level Boston Center
Sat 07:26:48 AM 43.9917 -68.6247 250° West 362 417 34,000  Level Boston Center
Sat 07:27:46 AM 43.9564 -68.7539 249° West 357 411 34,000  Level Boston Center
Sat 07:28:48 AM 43.9206 -68.8800 249° West 357 411 34,000  Level Boston Center
Sat 07:29:46 AM 43.8869 -69.0058 250° West 357 411 34,000  Level Boston Center
Sat 07:30:47 AM 43.8511 -69.1347 249° West 357 411 34,000  Level Boston Center
Sat 07:31:46 AM 43.8169 -69.2517 248° West 357 411 34,000  Level Boston Center
Sat 07:32:46 AM 43.7808 -69.3803 249° West 357 411 34,000  Level Boston Center
Sat 07:33:46 AM 43.7447 -69.5086 249° West 357 411 34,000  Level Boston Center
Sat 07:34:46 AM 43.7083 -69.6394 249° West 357 411 34,000  Level Boston Center
Sat 07:35:46 AM 43.6697 -69.7706 248° West 357 411 34,000  Level Boston Center
Sat 07:36:47 AM 43.6331 -69.8956 248° West 357 411 34,000  Level Boston Center
Sat 07:37:47 AM 43.5961 -70.0261 249° West 357 411 34,000  Level Boston Center
Sat 07:38:48 AM 43.5572 -70.1625 249° West 357 411 34,000  Level Boston Center
Sat 07:39:47 AM 43.5203 -70.2928 249° West 357 411 34,000  Level Boston Center
Sat 07:40:46 AM 43.4850 -70.4197 249° West 362 417 34,000  Level Boston Center
Sat 07:41:46 AM 43.4478 -70.5497 249° West 362 417 34,000  Level Boston Center
Sat 07:42:46 AM 43.3700 -70.6408 220° Southwest 348 400 34,000  Level Boston Center
Sat 07:43:47 AM 43.2661 -70.6750 193° South 348 400 34,000  Level Boston Center
Sat 07:44:47 AM 43.1625 -70.7094 194° South 367 422 34,000  Level Boston Center
Sat 07:45:48 AM 43.0547 -70.7467 194° South 383 441 34,000  Level Boston Center
Sat 07:46:46 AM 42.9511 -70.7836 195° South 393 452 34,000  Level Boston Center
Sat 07:47:47 AM 42.8494 -70.8231 196° South 393 452 34,000  Level Boston Center
Sat 07:48:48 AM 42.7728 -70.8478 193° South 381 438 34,000  Level Boston Center
Sat 07:49:48 AM 42.6628 -70.8872 195° South 360 414 34,000  Level Boston Center
Sat 07:50:46 AM 42.5778 -70.9175 195° South 353 406 34,000  Level Boston Center
Sat 07:51:47 AM 42.4994 -70.9814 211° Southwest 343 395 34,000  Level Boston Center
Sat 07:52:49 AM 42.4314 -71.0506 217° Southwest 322 371 34,000  Level Boston Center
Sat 07:53:46 AM 42.3636 -71.1222 218° Southwest 322 371 34,000  Level Boston Center
Sat 07:55:00 AM 42.2978 -71.1939 219° Southwest 316 364 34,000  Level Boston Center
Sat 07:55:58 AM 42.2153 -71.2767 217° Southwest 316 364 34,000  Level Boston Center
Sat 07:56:59 AM 42.1472 -71.3453 217° Southwest 316 364 34,000  Level Boston Center
Sat 07:57:58 AM 42.0789 -71.4192 219° Southwest 316 364 34,000  Level Boston Center
Sat 07:59:00 AM 42.0108 -71.4872 217° Southwest 316 364 34,000  Level Boston Center
Sat 07:59:58 AM 41.9425 -71.5553 217° Southwest 311 358 34,000  Level Boston Center
Sat 08:00:58 AM 41.8703 -71.6206 214° Southwest 311 358 34,000  Level Boston Center
Sat 08:01:58 AM 41.8039 -71.6908 218° Southwest 311 358 34,000  Level Boston Center
Sat 08:02:59 AM 41.7336 -71.7586 216° Southwest 311 358 34,000  Level Boston Center
Sat 08:03:58 AM 41.6672 -71.8258 217° Southwest 311 358 34,000  Level Boston Center
Sat 08:04:58 AM 41.5947 -71.9017 218° Southwest 311 358 34,000  Level Boston Center
Sat 08:05:59 AM 41.5261 -71.9686 216° Southwest 311 358 34,000  Level Boston Center
Sat 08:06:59 AM 41.4578 -72.0383 217° Southwest 311 358 34,000  Level Boston Center
Sat 08:07:59 AM 41.3892 -72.1053 216° Southwest 311 358 34,000  Level Boston Center
Sat 08:08:59 AM 41.3225 -72.1747 218° Southwest 311 358 34,000  Level Boston Center
Sat 08:09:59 AM 41.2539 -72.2386 215° Southwest 311 358 34,000  Level Boston Center
Sat 08:11:00 AM 41.1853 -72.3078 217° Southwest 311 358 34,000 -347 Level Boston Center
Sat 08:12:00 AM 41.1186 -72.3739 217° Southwest 311 358 33,300 -900 Descending Boston Center
Sat 08:13:00 AM 41.0500 -72.4428 217° Southwest 311 358 32,200 -1,160 Descending Boston Center
Sat 08:13:59 AM 40.9792 -72.5089 215° Southwest 311 358 31,000 -1,210 Descending Boston Center
Sat 08:14:59 AM 40.9122 -72.5775 218° Southwest 311 358 29,800 -1,140 Descending Boston Center
Sat 08:16:00 AM 40.8392 -72.6486 216° Southwest 316 364 28,700 -1,227 Descending Boston Center
Sat 08:18:00 AM 40.6903 -72.7911 216° Southwest 329 379 26,100 -1,281 Descending New York Center
Sat 08:18:58 AM 40.6161 -72.8628 216° Southwest 329 379 24,900 -1,210 Descending New York Center
Sat 08:19:59 AM 40.5419 -72.9342 216° Southwest 329 379 23,700 -1,180 Descending New York Center
Sat 08:21:00 AM 40.4719 -73.0028 217° Southwest 329 379 22,500 -864 Descending New York Center
Sat 08:21:57 AM 40.4019 -73.0714 217° Southwest 323 372 22,000 -254 Descending New York Center
Sat 08:22:58 AM 40.3339 -73.1344 215° Southwest 323 372 22,000  Level New York Center
Sat 08:24:00 AM 40.2658 -73.2028 217° Southwest 323 372 22,000  Level New York Center
Sat 08:24:58 AM 40.1958 -73.2683 216° Southwest 323 372 22,000  Level New York Center
Sat 08:25:59 AM 40.1256 -73.3336 215° Southwest 323 372 22,000 -347 Level New York Center
Sat 08:26:59 AM 40.0575 -73.3989 216° Southwest 323 372 21,300 -908 Descending New York Center
Sat 08:27:58 AM 39.9872 -73.4639 215° Southwest 318 366 20,200 -1,109 Descending New York Center
Sat 08:28:58 AM 39.9189 -73.5289 216° Southwest 318 366 19,100 -1,091 Descending New York Center
Sat 08:29:59 AM 39.8586 -73.6103 226° Southwest 318 366 18,000 -1,082 Descending New York Center
Sat 08:31:00 AM 39.8064 -73.6972 232° Southwest 318 366 16,900 -1,091 Descending New York Center
Sat 08:32:11 AM 39.7458 -73.7914 230° Southwest 295 339 15,600 -1,053 Descending Washington Center
Sat 08:33:11 AM 39.6908 -73.8739 229° Southwest 300 345 14,600 -800 Descending Washington Center
Sat 08:34:11 AM 39.6397 -73.9558 231° Southwest 305 351 14,000 -330 Descending Washington Center
Sat 08:35:00 AM 39.5953 -74.0272 231° Southwest 289 333 14,000  Level FAA TRACON SMA TRACON (SMA)
Sat 08:35:20 AM 39.5783 -74.0531 230° Southwest 289 333 14,000  Level FAA TRACON SMA TRACON (SMA)
Sat 08:35:40 AM 39.5622 -74.0778 230° Southwest 289 333 14,000  Level FAA TRACON SMA TRACON (SMA)
Sat 08:36:00 AM 39.5422 -74.1092 230° Southwest 291 335 14,000  Level FAA TRACON SMA TRACON (SMA)
Sat 08:36:20 AM 39.5292 -74.1361 238° Southwest 287 330 14,000  Level FAA TRACON SMA TRACON (SMA)
Sat 08:36:40 AM 39.5244 -74.1667 259° West 287 330 14,000 -300 Level FAA TRACON SMA TRACON (SMA)
Sat 08:37:00 AM 39.5250 -74.2067 271° West 282 325 13,800 -750 Descending FAA TRACON SMA TRACON (SMA)
Sat 08:37:20 AM 39.5258 -74.2364 272° West 262 302 13,500 -900 Descending FAA TRACON SMA TRACON (SMA)
Sat 08:37:40 AM 39.5258 -74.2664 270° West 270 311 13,200 -1,050 Descending FAA TRACON SMA TRACON (SMA)
Sat 08:38:00 AM 39.5261 -74.3036 271° West 268 308 12,800 -1,050 Descending FAA TRACON SMA TRACON (SMA)
Sat 08:38:20 AM 39.5269 -74.3328 272° West 266 306 12,500 -1,050 Descending FAA TRACON SMA TRACON (SMA)
Sat 08:38:40 AM 39.5289 -74.3672 274° West 266 306 12,100 -1,050 Descending FAA TRACON SMA TRACON (SMA)
Sat 08:39:00 AM 39.5281 -74.3989 268° West 266 306 11,800 -900 Descending FAA TRACON SMA TRACON (SMA)
Sat 08:39:20 AM 39.5289 -74.4286 272° West 267 307 11,500 -900 Descending FAA TRACON SMA TRACON (SMA)
Sat 08:39:40 AM 39.5297 -74.4583 272° West 267 307 11,200 -900 Descending FAA TRACON SMA TRACON (SMA)
Sat 08:40:00 AM 39.5303 -74.4919 271° West 263 303 10,900 -900 Descending FAA TRACON SMA TRACON (SMA)
Sat 08:40:20 AM 39.5303 -74.5194 270° West 231 266 10,600 -900 Descending FAA TRACON SMA TRACON (SMA)
Sat 08:40:40 AM 39.5308 -74.5456 272° West 237 273 10,300 -900 Descending FAA TRACON SMA TRACON (SMA)
Sat 08:41:00 AM 39.5328 -74.5769 275° West 240 276 10,000 -900 Descending FAA TRACON SMA TRACON (SMA)
Sat 08:41:20 AM 39.5317 -74.6061 267° West 242 278 9,700 -900 Descending FAA TRACON SMA TRACON (SMA)
Sat 08:41:40 AM 39.5322 -74.6331 272° West 243 280 9,400 -900 Descending FAA TRACON SMA TRACON (SMA)
Sat 08:42:00 AM 39.5333 -74.6650 273° West 243 280 9,100 -600 Descending FAA TRACON SMA TRACON (SMA)
Sat 08:42:20 AM 39.5333 -74.6931 270° West 241 277 9,000 -150 Descending FAA TRACON SMA TRACON (SMA)
Sat 08:42:40 AM 39.5339 -74.7200 272° West 242 278 9,000  Level FAA TRACON SMA TRACON (SMA)
Sat 08:43:00 AM 39.5342 -74.7539 271° West 243 280 9,000 -150 Level FAA TRACON SMA TRACON (SMA)
Sat 08:43:20 AM 39.5361 -74.7811 275° West 245 282 8,900 -750 Descending FAA TRACON SMA TRACON (SMA)
Sat 08:43:40 AM 39.5478 -74.8056 302° West 260 299 8,500 -1,200 Descending FAA TRACON SMA TRACON (SMA)
Sat 08:44:00 AM 39.5692 -74.8300 319° Northwest 276 318 8,100 -750 Descending FAA TRACON SMA TRACON (SMA)
Sat 08:44:20 AM 39.5856 -74.8486 319° Northwest 262 302 8,000 -150 Descending FAA TRACON SMA TRACON (SMA)
Sat 08:44:40 AM 39.6039 -74.8681 321° Northwest 263 303 8,000 -300 Level FAA TRACON SMA TRACON (SMA)
Sat 08:45:00 AM 39.6244 -74.8908 320° Northwest 262 302 7,800 -900 Descending FAA TRACON SMA TRACON (SMA)
Sat 08:45:20 AM 39.6411 -74.9086 321° Northwest 261 300 7,400 -1,200 Descending FAA TRACON SMA TRACON (SMA)
Sat 08:45:40 AM 39.6578 -74.9283 318° Northwest 259 298 7,000 -1,500 Descending FAA TRACON SMA TRACON (SMA)
Sat 08:46:00 AM 39.6792 -74.9514 320° Northwest 259 298 6,400 -1,500 Descending FAA TRACON SMA TRACON (SMA)
Sat 08:46:20 AM 39.6958 -74.9697 320° Northwest 256 295 6,000 -600 Descending FAA TRACON SMA TRACON (SMA)
Sat 08:46:40 AM 39.7114 -74.9869 320° Northwest 246 283 6,000  Level FAA TRACON SMA TRACON (SMA)
Sat 08:47:00 AM 39.7269 -75.0050 318° Northwest 213 245 6,000  Level FAA TRACON SMA TRACON (SMA)
Sat 08:47:20 AM 39.7442 -75.0153 335° Northwest 200 230 6,000  Level FAA TRACON SMA TRACON (SMA)
Sat 08:47:40 AM 39.7589 -75.0064 25° Northeast 204 235 6,000  Level FAA TRACON SMA TRACON (SMA)
Sat 08:48:00 AM 39.7739 -74.9856 47° Northeast 204 235 6,000  Level FAA TRACON SMA TRACON (SMA)
Sat 08:48:20 AM 39.7875 -74.9667 47° Northeast 214 246 6,000  Level FAA TRACON SMA TRACON (SMA)
Sat 08:48:40 AM 39.8025 -74.9464 46° Northeast 212 244 6,000  Level FAA TRACON SMA TRACON (SMA)
Sat 08:49:00 AM 39.8147 -74.9292 47° Northeast 215 247 6,000  Level FAA TRACON SMA TRACON (SMA)
Sat 08:49:20 AM 39.8281 -74.9106 47° Northeast 214 246 6,000 -750 Level FAA TRACON SMA TRACON (SMA)
Sat 08:49:40 AM 39.8450 -74.8936 38° Northeast 199 229 5,500 -1,385 Descending FAA TRACON SMA TRACON (SMA)
Sat 08:49:59 AM 39.8606 -74.8864 20° North 189 217 5,100 -1,200 Descending FAA TRACON SMA TRACON (SMA)
Sat 08:50:20 AM 39.8761 -74.8808 15° North 185 213 4,700 -1,050 Descending FAA TRACON SMA TRACON (SMA)
Sat 08:50:39 AM 39.8942 -74.8728 19° North 184 212 4,400 -1,077 Descending FAA TRACON SMA TRACON (SMA)
Sat 08:50:59 AM 39.9083 -74.8689 12° North 174 200 4,000 -600 Descending FAA TRACON SMA TRACON (SMA)
Sat 08:51:19 AM 39.9222 -74.8681 North 149 171 4,000  Level FAA TRACON SMA TRACON (SMA)
Sat 08:51:39 AM 39.9303 -74.8817 308° West 165 190 4,000  Level FAA TRACON SMA TRACON (SMA)
Sat 08:52:00 AM 39.9342 -74.9011 285° West 151 174 4,000  Level FAA TRACON SMA TRACON (SMA)
Sat 08:52:20 AM 39.9350 -74.9186 274° West 152 175 4,000  Level FAA TRACON SMA TRACON (SMA)
Sat 08:52:40 AM 39.9308 -74.9403 256° West 157 181 4,000  Level FAA TRACON SMA TRACON (SMA)
Sat 08:53:00 AM 39.9272 -74.9578 255° West 157 181 4,000  Level FAA TRACON SMA TRACON (SMA)
Sat 08:53:20 AM 39.9242 -74.9750 257° West 159 183 4,000 -450 Level FAA TRACON SMA TRACON (SMA)
Sat 08:53:40 AM 39.9200 -74.9939 254° West 158 182 3,700 -900 Descending FAA TRACON SMA TRACON (SMA)
Sat 08:54:00 AM 39.9169 -75.0133 258° West 158 182 3,400 -900 Descending FAA TRACON SMA TRACON (SMA)
Sat 08:54:20 AM 39.9136 -75.0300 255° West 158 182 3,100 -900 Descending FAA TRACON SMA TRACON (SMA)
Sat 08:54:40 AM 39.9092 -75.0517 255° West 157 181 2,800 -900 Descending FAA TRACON SMA TRACON (SMA)
Sat 08:55:00 AM 39.9061 -75.0689 257° West 159 183 2,500 -769 Descending FAA TRACON SMA TRACON (SMA)
Sat 08:55:19 AM 39.9028 -75.0850 255° West 159 183 2,300 -923 Descending FAA TRACON SMA TRACON (SMA)
Sat 08:55:39 AM 39.8986 -75.1069 256° West 155 178 1,900 -900 Descending FAA TRACON SMA TRACON (SMA)
Sat 08:55:59 AM 39.8956 -75.1219 255° West 132 152 1,700 -600 Descending FAA TRACON SMA TRACON (SMA)
Sat 08:56:19 AM 39.8928 -75.1353 255° West 137 158 1,500 -732 Descending FAA TRACON SMA TRACON (SMA)
Sat 08:56:40 AM 39.8894 -75.1522 256° West 129 148 1,200 -900 Descending FAA TRACON SMA TRACON (SMA)
Sat 08:56:59 AM 39.8864 -75.1667 255° West 133 153 900 -615 Descending FAA TRACON SMA TRACON (SMA)
Sat 08:57:19 AM 39.8842 -75.1781 256° West 134 154 800 -732 Descending FAA TRACON SMA TRACON (SMA)
Sat 08:57:40 AM 39.8800 -75.2000 256° West 134 154 400 -878 Descending FAA TRACON SMA TRACON (SMA)
Sat 08:58:00 AM 39.8769 -75.2144 255° West 134 154 200 -300 Descending FAA TRACON SMA TRACON (SMA)
Sat 08:58:20 AM 39.8764 -75.2181 259° West 134 154 200  Level FAA TRACON SMA TRACON (SMA)
Sat 09:00:00 AM 39.8667 -75.2333 North  Level FlightAware Approximate

Login

Don't have an account? Register now (free) for customized features, flight alerts, and more!